Time;durP1;ratioP1;P1;durP2;ratioP2;P2;SDS_P1;SDS_P2;PMS_P1;PMS_P2;Temp;Humidity;BMP_temperature;BMP_pressure;BME280_temperature;BME280_humidity;BME280_pressure;Samples;Min_cycle;Max_cycle;Signal;HPM_P1;HPM_P2
2022/09/11 00:01:27;;;;;;;0.70;0.70;;;;;;;25.19;45.49;94925.25;5026175;28;20204;-65
2022/09/11 00:03:55;;;;;;;2.57;1.07;;;;;;;25.00;46.05;94917.91;5037321;28;20774;-68
2022/09/11 00:06:23;;;;;;;0.63;0.63;;;;;;;25.26;45.18;94925.44;5025223;28;20193;-68
2022/09/11 00:08:59;;;;;;;1.10;0.97;;;;;;;24.95;46.05;94921.63;5028424;28;20764;-67
2022/09/11 00:11:31;;;;;;;0.63;0.63;;;;;;;24.93;46.12;94923.88;5025023;28;20205;-68
2022/09/11 00:13:59;;;;;;;0.70;0.70;;;;;;;24.94;46.24;94925.41;5027932;28;20193;-68
2022/09/11 00:16:35;;;;;;;3.23;0.57;;;;;;;24.31;47.56;94923.72;5026099;28;20280;-65
2022/09/11 00:19:10;;;;;;;0.70;0.70;;;;;;;24.76;46.35;94926.09;5027198;28;20869;-66
2022/09/11 00:21:38;;;;;;;0.20;0.20;;;;;;;24.78;46.43;94929.22;5013429;28;20209;-68
2022/09/11 00:24:09;;;;;;;1.33;1.23;;;;;;;24.61;46.50;94922.25;5013101;28;20256;-68
2022/09/11 00:26:37;;;;;;;0.43;0.43;;;;;;;24.30;47.20;94922.16;5031468;28;20460;-67
2022/09/11 00:29:04;;;;;;;1.30;1.20;;;;;;;24.12;47.89;94920.88;5031356;28;20212;-67
2022/09/11 00:31:31;;;;;;;0.40;0.40;;;;;;;24.40;47.18;94927.03;5027335;28;20255;-69
2022/09/11 00:33:58;;;;;;;1.40;1.30;;;;;;;24.24;47.73;94930.75;5013499;28;20202;-69
2022/09/11 00:36:30;;;;;;;2.73;1.17;;;;;;;24.37;47.25;94927.72;5026753;28;20213;-69
2022/09/11 00:38:58;;;;;;;0.57;0.57;;;;;;;24.26;47.46;94926.63;5022020;28;20241;-67
2022/09/11 00:41:34;;;;;;;0.40;0.27;;;;;;;23.59;49.53;94934.56;5032264;28;20197;-70
2022/09/11 00:44:06;;;;;;;2.50;0.83;;;;;;;23.40;49.72;94928.97;5032349;28;20687;-65
2022/09/11 00:46:37;;;;;;;0.43;0.43;;;;;;;23.95;48.24;94929.16;5032327;28;20201;-69
2022/09/11 00:49:17;;;;;;;0.13;0.13;;;;;;;23.67;49.33;94937.09;5033207;28;20592;-66
2022/09/11 00:51:47;;;;;;;0.30;0.30;;;;;;;23.99;48.59;94932.72;5035273;28;20204;-66
2022/09/11 00:54:19;;;;;;;0.50;0.50;;;;;;;23.74;48.93;94931.22;5024705;28;20208;-67
2022/09/11 00:56:48;;;;;;;0.80;0.80;;;;;;;24.05;48.30;94934.03;5034029;28;20795;-68
2022/09/11 00:59:16;;;;;;;1.17;0.40;;;;;;;24.27;48.08;94936.22;5032207;28;20288;-71
2022/09/11 01:01:43;;;;;;;0.97;0.97;;;;;;;24.37;47.88;94941.09;5032279;28;20279;-70
2022/09/11 01:04:10;;;;;;;1.87;0.70;;;;;;;24.59;47.09;94929.84;5032439;28;20216;-67
2022/09/11 01:06:39;;;;;;;2.63;1.03;;;;;;;24.03;47.80;94938.97;5047518;28;20216;-69
2022/09/11 01:09:07;;;;;;;0.83;0.83;;;;;;;24.02;48.40;94932.06;5030480;28;20199;-67
2022/09/11 01:12:23;;;;;;;0.50;0.50;;;;;;;24.00;48.52;94937.75;5030614;28;20197;-67
2022/09/11 01:14:59;;;;;;;0.40;0.40;;;;;;;24.23;48.07;94931.88;4995203;28;20210;-68
2022/09/11 01:17:33;;;;;;;1.03;0.97;;;;;;;23.55;49.93;94945.16;5033259;28;20224;-68
2022/09/11 01:20:31;;;;;;;0.30;0.30;;;;;;;23.88;49.33;94945.00;5031857;28;20205;-66
2022/09/11 01:23:16;;;;;;;0.40;0.40;;;;;;;24.03;48.60;94933.63;5032036;28;20208;-66
2022/09/11 01:26:19;;;;;;;1.23;0.53;;;;;;;23.98;48.79;94944.53;5030441;28;20594;-69
2022/09/11 01:28:56;;;;;;;0.73;0.50;;;;;;;23.46;50.26;94946.38;5008900;28;20621;-67
2022/09/11 01:31:29;;;;;;;0.60;0.60;;;;;;;23.22;50.54;94940.97;5032829;28;20541;-70
2022/09/11 01:34:01;;;;;;;0.73;0.73;;;;;;;23.89;49.17;94943.88;5035863;28;20197;-68
2022/09/11 01:36:34;;;;;;;1.53;1.43;;;;;;;23.95;48.86;94937.19;5029844;28;20198;-66
2022/09/11 01:39:03;;;;;;;0.50;0.50;;;;;;;23.67;49.48;94925.63;5031191;28;20237;-68
2022/09/11 01:41:52;;;;;;;0.70;0.70;;;;;;;23.57;50.00;94931.44;5031458;28;20211;-68
2022/09/11 01:44:26;;;;;;;0.67;0.67;;;;;;;23.70;49.83;94931.06;5030161;28;20216;-67
2022/09/11 01:46:53;;;;;;;0.50;0.50;;;;;;;23.77;49.16;94930.53;5032653;28;20190;-67
2022/09/11 01:49:47;;;;;;;2.80;0.47;;;;;;;24.07;48.37;94923.78;5029773;28;20197;-68
2022/09/11 01:52:19;;;;;;;2.07;1.43;;;;;;;24.09;48.62;94916.19;5017271;28;20680;-67
2022/09/11 01:54:53;;;;;;;1.20;1.10;;;;;;;24.51;47.65;94916.59;5017049;28;20224;-66
2022/09/11 01:57:38;;;;;;;0.30;0.30;;;;;;;24.47;47.68;94915.72;5017216;28;20189;-69
2022/09/11 02:00:09;;;;;;;0.30;0.30;;;;;;;24.47;47.51;94913.06;5046519;28;20201;-69
2022/09/11 02:03:06;;;;;;;0.57;0.57;;;;;;;24.25;47.63;94900.19;5033314;28;20256;-66
2022/09/11 02:06:04;;;;;;;0.53;0.47;;;;;;;24.38;47.36;94907.06;5027613;28;20581;-66
2022/09/11 02:08:47;;;;;;;0.60;0.60;;;;;;;24.57;47.00;94907.97;5028394;28;20216;-67
2022/09/11 02:11:19;;;;;;;0.90;0.83;;;;;;;24.26;47.62;94905.22;5029696;28;20232;-67
2022/09/11 02:14:05;;;;;;;0.20;0.20;;;;;;;24.19;47.78;94905.00;5024098;28;20212;-68
2022/09/11 02:16:37;;;;;;;2.53;0.97;;;;;;;24.40;47.09;94908.25;5038138;28;20198;-68
2022/09/11 02:19:08;;;;;;;0.20;0.20;;;;;;;24.37;47.40;94895.56;5041006;28;20207;-67
2022/09/11 02:21:36;;;;;;;1.60;0.73;;;;;;;24.51;47.26;94908.53;5046399;28;20201;-66
2022/09/11 02:24:05;;;;;;;0.33;0.33;;;;;;;24.58;46.85;94906.09;5029922;28;20250;-68
2022/09/11 02:26:38;;;;;;;0.23;0.23;;;;;;;24.56;46.64;94903.72;5029840;28;20205;-68
2022/09/11 02:29:07;;;;;;;0.17;0.17;;;;;;;24.48;47.17;94902.00;5029086;28;20209;-67
2022/09/11 02:31:35;;;;;;;0.40;0.40;;;;;;;24.59;47.34;94913.78;5045590;28;20240;-64
2022/09/11 02:34:02;;;;;;;0.50;0.50;;;;;;;24.57;47.30;94896.47;5042374;28;20591;-65
2022/09/11 02:36:39;;;;;;;0.33;0.33;;;;;;;24.58;47.39;94911.44;5028926;28;20625;-67
2022/09/11 02:39:21;;;;;;;0.70;0.60;;;;;;;24.55;47.34;94902.19;5045500;28;20711;-67
2022/09/11 02:42:14;;;;;;;0.67;0.67;;;;;;;24.39;47.63;94903.25;5015327;28;20193;-66
2022/09/11 02:45:21;;;;;;;0.30;0.30;;;;;;;24.36;47.95;94915.41;5045306;28;20204;-68
2022/09/11 02:48:35;;;;;;;0.30;0.30;;;;;;;24.25;48.30;94903.63;5028849;28;20660;-66
2022/09/11 02:51:22;;;;;;;1.30;1.20;;;;;;;24.40;48.02;94905.59;4994485;28;20282;-68
2022/09/11 02:53:55;;;;;;;0.43;0.43;;;;;;;24.25;48.15;94903.63;5016410;28;20200;-66
2022/09/11 02:56:39;;;;;;;0.73;0.73;;;;;;;24.22;48.22;94904.31;5028748;28;20296;-67
2022/09/11 02:59:14;;;;;;;0.50;0.50;;;;;;;24.27;48.35;94901.41;5028578;28;20193;-68
2022/09/11 03:01:52;;;;;;;0.40;0.40;;;;;;;24.10;48.56;94904.38;5045890;28;20249;-67
2022/09/11 03:04:23;;;;;;;0.60;0.60;;;;;;;24.23;48.60;94903.22;5033684;28;20209;-64
2022/09/11 03:06:52;;;;;;;1.07;1.07;;;;;;;24.36;48.33;94899.34;5057738;28;20235;-64
2022/09/11 03:09:20;;;;;;;0.13;0.13;;;;;;;24.03;49.00;94904.19;5033897;28;20632;-69
2022/09/11 03:11:50;;;;;;;1.10;1.00;;;;;;;24.14;48.79;94905.25;5045236;28;20237;-67
2022/09/11 03:14:18;;;;;;;1.70;1.13;;;;;;;24.00;49.19;94902.13;5034729;28;20205;-67
2022/09/11 03:16:45;;;;;;;0.60;0.60;;;;;;;23.66;50.26;94914.16;5029772;28;20675;-68
2022/09/11 03:19:13;;;;;;;0.40;0.40;;;;;;;23.78;50.06;94916.81;5028495;28;20915;-67
2022/09/11 03:21:40;;;;;;;0.50;0.50;;;;;;;23.48;50.31;94922.75;5029612;28;20224;-67
2022/09/11 03:24:08;;;;;;;1.20;0.90;;;;;;;23.66;49.92;94913.38;5028211;28;20287;-68
2022/09/11 03:26:36;;;;;;;0.47;0.47;;;;;;;23.24;51.58;94922.72;5045154;28;20250;-68
2022/09/11 03:29:04;;;;;;;0.27;0.27;;;;;;;23.07;51.98;94929.84;5029611;28;20213;-67
2022/09/11 03:31:31;;;;;;;0.50;0.50;;;;;;;23.10;52.13;94937.19;5015345;28;20216;-68
2022/09/11 03:34:05;;;;;;;0.93;0.60;;;;;;;23.31;51.49;94928.31;5029527;28;20577;-69
2022/09/11 03:36:35;;;;;;;1.27;1.17;;;;;;;23.39;51.10;94935.47;5028355;28;20279;-69
2022/09/11 03:39:04;;;;;;;2.20;1.17;;;;;;;23.56;50.94;94927.97;5024719;28;20710;-68
2022/09/11 03:41:31;;;;;;;0.50;0.50;;;;;;;23.72;50.37;94922.72;5025806;28;20194;-66
2022/09/11 03:43:58;;;;;;;0.60;0.60;;;;;;;23.66;50.48;94932.09;5034785;28;20275;-68
2022/09/11 03:46:26;;;;;;;0.23;0.20;;;;;;;23.79;50.12;94941.66;5024118;28;20197;-65
2022/09/11 03:48:53;;;;;;;0.63;0.63;;;;;;;23.26;51.65;94950.69;5027987;28;20227;-67
2022/09/11 03:51:20;;;;;;;0.67;0.67;;;;;;;23.35;51.10;94946.03;5030893;28;20221;-68
2022/09/11 03:53:47;;;;;;;0.70;0.70;;;;;;;23.10;51.78;94950.53;5014360;28;20553;-68
2022/09/11 03:56:14;;;;;;;0.50;0.50;;;;;;;23.22;51.66;94951.69;5035781;28;20198;-67
2022/09/11 03:58:47;;;;;;;0.30;0.30;;;;;;;23.73;50.33;94943.00;5039831;28;20201;-69
2022/09/11 04:01:17;;;;;;;9.63;1.20;;;;;;;23.88;49.81;94932.41;5044373;28;20234;-68
2022/09/11 04:03:45;;;;;;;1.43;1.33;;;;;;;23.49;51.05;94951.03;5044105;28;20208;-67
2022/09/11 04:06:22;;;;;;;0.43;0.43;;;;;;;23.14;51.25;94935.41;5024797;28;20213;-69
2022/09/11 04:08:49;;;;;;;1.27;1.17;;;;;;;23.43;50.71;94952.41;5038579;28;20205;-70
2022/09/11 04:11:17;;;;;;;0.57;0.57;;;;;;;23.53;50.58;94946.59;5027812;28;20247;-71
2022/09/11 04:13:44;;;;;;;1.43;0.90;;;;;;;23.40;51.05;94945.03;5037352;28;20233;-67
2022/09/11 04:16:16;;;;;;;1.20;0.77;;;;;;;23.07;52.00;94947.75;5038878;28;20578;-68
2022/09/11 04:18:46;;;;;;;0.70;0.70;;;;;;;23.49;50.55;94943.03;5020045;28;20451;-69
2022/09/11 04:21:16;;;;;;;0.53;0.53;;;;;;;22.60;53.20;94960.69;5023453;28;20210;-67
2022/09/11 04:23:54;;;;;;;0.93;0.93;;;;;;;22.85;52.65;94953.50;5019326;28;20687;-66
2022/09/11 04:26:24;;;;;;;0.83;0.83;;;;;;;23.01;51.96;94947.19;5023948;28;20541;-65
2022/09/11 04:28:57;;;;;;;2.23;1.37;;;;;;;22.78;53.03;94954.06;5019800;28;20197;-66
2022/09/11 04:31:26;;;;;;;0.40;0.40;;;;;;;23.18;51.76;94946.22;5015030;28;20382;-68
2022/09/11 04:33:54;;;;;;;0.67;0.67;;;;;;;23.12;51.99;94942.97;5027609;28;20580;-71
2022/09/11 04:36:28;;;;;;;1.07;1.07;;;;;;;22.86;52.76;94933.72;5044701;28;20200;-67
2022/09/11 04:38:57;;;;;;;0.67;0.67;;;;;;;22.87;52.65;94952.06;5044217;28;20510;-70
2022/09/11 04:41:25;;;;;;;1.60;1.50;;;;;;;22.45;53.87;94961.25;5014846;28;20194;-67
2022/09/11 04:43:55;;;;;;;0.63;0.63;;;;;;;22.37;54.22;94948.75;5044262;28;20446;-67
2022/09/11 04:46:27;;;;;;;0.40;0.40;;;;;;;22.49;53.66;94961.38;5028944;28;20510;-66
2022/09/11 04:48:58;;;;;;;0.93;0.93;;;;;;;23.11;52.23;94960.16;5027346;28;20451;-69
2022/09/11 04:51:27;;;;;;;0.40;0.40;;;;;;;22.97;52.28;94956.97;5016979;28;20472;-68
2022/09/11 04:53:57;;;;;;;0.23;0.23;;;;;;;22.94;52.13;94957.66;5032210;28;20185;-67
2022/09/11 04:56:33;;;;;;;0.60;0.60;;;;;;;22.98;52.06;94963.91;5031006;28;20271;-67
2022/09/11 04:59:04;;;;;;;0.97;0.90;;;;;;;22.91;52.36;94958.31;5030930;28;20444;-68
2022/09/11 05:01:34;;;;;;;1.00;0.90;;;;;;;23.16;51.27;94953.78;5047991;28;20440;-67
2022/09/11 05:04:02;;;;;;;0.60;0.60;;;;;;;23.25;50.89;94957.13;5031090;28;20474;-67
2022/09/11 05:06:29;;;;;;;0.40;0.40;;;;;;;23.34;50.89;94962.44;5032619;28;20442;-68
2022/09/11 05:09:08;;;;;;;2.00;1.00;;;;;;;23.54;50.80;94953.53;5030990;28;20227;-66
2022/09/11 05:11:37;;;;;;;0.83;0.83;;;;;;;23.32;51.11;94962.75;5031143;28;20220;-68
2022/09/11 05:14:05;;;;;;;1.67;1.10;;;;;;;23.54;50.36;94953.53;5032170;28;20197;-66
2022/09/11 05:16:35;;;;;;;0.63;0.63;;;;;;;22.98;52.07;94947.88;5031119;28;20193;-70
2022/09/11 05:19:03;;;;;;;7.60;2.20;;;;;;;23.45;51.47;94950.94;5032170;28;20205;-68
2022/09/11 05:21:33;;;;;;;0.60;0.60;;;;;;;23.44;51.16;94959.31;5047128;28;20551;-67
2022/09/11 05:24:01;;;;;;;2.00;1.53;;;;;;;23.85;50.07;94953.69;5030547;28;20727;-69
2022/09/11 05:26:33;;;;;;;0.80;0.80;;;;;;;23.40;51.08;94945.81;5047116;28;20208;-67
2022/09/11 05:29:04;;;;;;;1.17;1.07;;;;;;;23.57;50.97;94952.84;5014683;28;20201;-66
2022/09/11 05:31:34;;;;;;;1.00;1.00;;;;;;;23.67;50.75;94963.06;5038741;28;20217;-67
2022/09/11 05:34:03;;;;;;;0.90;0.73;;;;;;;23.51;51.09;94956.84;5030423;28;20193;-68
2022/09/11 05:36:30;;;;;;;1.57;1.30;;;;;;;23.26;51.65;94968.63;5033099;28;20192;-69
2022/09/11 05:38:58;;;;;;;0.83;0.83;;;;;;;23.40;51.17;94953.06;5036409;28;20776;-69
2022/09/11 05:41:25;;;;;;;0.57;0.57;;;;;;;23.41;51.46;94954.63;5028244;28;20197;-70
2022/09/11 05:43:53;;;;;;;0.83;0.83;;;;;;;23.44;51.23;94953.94;5046986;28;20197;-70
2022/09/11 05:46:21;;;;;;;0.50;0.50;;;;;;;23.47;51.02;94947.91;5031357;28;20677;-68
2022/09/11 05:48:52;;;;;;;0.53;0.53;;;;;;;23.82;50.70;94938.31;5014664;28;20201;-70
2022/09/11 05:51:20;;;;;;;0.77;0.73;;;;;;;23.80;50.53;94945.91;5030343;28;20717;-70
2022/09/11 05:53:54;;;;;;;0.93;0.70;;;;;;;23.57;50.77;94952.84;5016652;28;20201;-69
2022/09/11 05:56:23;;;;;;;0.50;0.50;;;;;;;23.33;51.50;94947.47;5030192;28;20212;-68
2022/09/11 05:58:56;;;;;;;0.40;0.40;;;;;;;23.69;51.15;94944.78;5029711;28;20271;-66
2022/09/11 06:01:29;;;;;;;0.63;0.63;;;;;;;23.41;50.57;94947.38;5035511;28;20275;-69
2022/09/11 06:04:14;;;;;;;0.53;0.53;;;;;;;23.19;51.18;94947.78;5028331;28;20205;-68
2022/09/11 06:06:46;;;;;;;0.77;0.53;;;;;;;23.61;51.50;94959.09;5035361;28;20201;-68
2022/09/11 06:09:14;;;;;;;0.77;0.77;;;;;;;23.53;51.13;94963.44;5024861;28;20201;-65
2022/09/11 06:11:42;;;;;;;1.13;1.03;;;;;;;23.68;51.00;94965.44;5048790;28;20255;-66
2022/09/11 06:14:11;;;;;;;0.60;0.60;;;;;;;24.07;50.50;94963.94;5049025;28;20240;-68
2022/09/11 06:16:41;;;;;;;0.87;0.73;;;;;;;23.87;50.06;94959.47;5018672;28;20217;-70
2022/09/11 06:19:11;;;;;;;0.90;0.73;;;;;;;23.94;49.81;94962.41;5029241;28;20223;-66
2022/09/11 06:21:39;;;;;;;2.83;1.23;;;;;;;24.40;49.27;94964.50;5046345;28;20205;-67
2022/09/11 06:24:42;;;;;;;1.53;1.40;;;;;;;24.29;49.53;94968.78;5008795;28;20197;-71
2022/09/11 06:27:09;;;;;;;0.70;0.70;;;;;;;23.98;50.26;94969.41;5035080;28;20667;-68
2022/09/11 06:29:42;;;;;;;2.37;0.87;;;;;;;24.47;48.85;94969.31;5024135;28;20697;-67
2022/09/11 06:32:10;;;;;;;0.87;0.87;;;;;;;24.35;49.23;94975.47;5036366;28;20232;-66
2022/09/11 06:34:38;;;;;;;3.00;1.30;;;;;;;24.03;49.58;94966.50;5028873;28;20189;-67
2022/09/11 06:37:08;;;;;;;1.33;1.03;;;;;;;23.87;50.41;94973.66;5029251;28;20647;-70
2022/09/11 06:39:35;;;;;;;0.87;0.87;;;;;;;23.94;50.54;94965.06;5028658;28;20615;-67
2022/09/11 06:42:02;;;;;;;0.60;0.60;;;;;;;23.87;50.72;94967.50;5023021;28;20198;-69
2022/09/11 06:44:34;;;;;;;0.93;0.93;;;;;;;23.58;50.69;94965.88;5022992;28;20201;-66
2022/09/11 06:47:02;;;;;;;1.90;1.47;;;;;;;23.87;50.55;94976.31;5016116;28;20685;-66
2022/09/11 06:49:31;;;;;;;0.80;0.80;;;;;;;23.67;49.84;94984.47;5030734;28;20205;-71
2022/09/11 06:52:16;;;;;;;0.87;0.87;;;;;;;24.07;48.88;94980.78;5018069;28;20338;-67
2022/09/11 06:54:53;;;;;;;2.90;0.93;;;;;;;24.06;49.36;94976.56;5031477;28;20214;-67
2022/09/11 06:57:20;;;;;;;5.70;2.43;;;;;;;24.32;48.31;94952.06;5031256;28;20205;-70
2022/09/11 06:59:47;;;;;;;1.33;1.23;;;;;;;24.37;48.68;94973.25;5028866;28;20266;-71
2022/09/11 07:02:15;;;;;;;1.60;1.47;;;;;;;24.51;48.02;94970.94;5029308;28;20214;-70
2022/09/11 07:04:43;;;;;;;1.67;1.47;;;;;;;24.73;47.91;94967.75;5018882;28;20579;-69
2022/09/11 07:07:10;;;;;;;0.60;0.60;;;;;;;24.97;47.49;94967.66;5030206;28;20292;-72
2022/09/11 07:09:39;;;;;;;1.47;1.20;;;;;;;25.13;46.74;94974.94;5021792;28;20224;-65
2022/09/11 07:12:06;;;;;;;0.63;0.63;;;;;;;25.38;45.57;94960.25;5021935;28;20252;-68
2022/09/11 07:14:33;;;;;;;0.90;0.90;;;;;;;25.31;46.00;94970.78;5013983;28;20197;-69
2022/09/11 07:17:10;;;;;;;0.57;0.57;;;;;;;24.96;46.05;94966.06;5028680;28;20212;-66
2022/09/11 07:19:39;;;;;;;0.50;0.50;;;;;;;25.19;46.67;94968.97;5044525;28;20208;-68
2022/09/11 07:22:06;;;;;;;0.43;0.43;;;;;;;25.32;45.64;94972.34;5028314;28;20193;-70
2022/09/11 07:24:33;;;;;;;1.17;1.03;;;;;;;25.69;45.00;94965.59;5028246;28;20215;-66
2022/09/11 07:27:00;;;;;;;1.53;1.23;;;;;;;25.48;45.00;94965.09;5029732;28;20560;-69
2022/09/11 07:29:31;;;;;;;0.70;0.70;;;;;;;25.87;43.45;94967.56;5045008;28;20299;-69
2022/09/11 07:31:58;;;;;;;0.97;0.97;;;;;;;25.78;44.28;94963.50;5035737;28;20256;-68
2022/09/11 07:34:26;;;;;;;0.40;0.40;;;;;;;25.47;44.25;94958.19;5023542;28;20251;-67
2022/09/11 07:36:54;;;;;;;0.27;0.27;;;;;;;26.10;44.50;94962.31;5028137;28;20212;-70
2022/09/11 07:39:24;;;;;;;0.83;0.83;;;;;;;25.78;44.12;94952.78;5027676;28;20229;-70
2022/09/11 07:41:59;;;;;;;1.10;1.03;;;;;;;26.15;41.29;94945.16;5015618;28;20193;-69
2022/09/11 07:44:30;;;;;;;1.00;0.93;;;;;;;25.93;41.17;94938.50;5044289;28;20691;-69
2022/09/11 07:46:57;;;;;;;0.50;0.50;;;;;;;26.30;41.36;94950.47;5044654;28;20559;-68
2022/09/11 07:49:25;;;;;;;1.33;0.73;;;;;;;26.63;40.76;94945.38;5038503;28;20257;-65
2022/09/11 07:51:53;;;;;;;0.47;0.47;;;;;;;26.02;42.78;94947.19;5028223;28;20668;-70
2022/09/11 07:54:30;;;;;;;0.83;0.73;;;;;;;25.98;42.58;94957.81;5044860;28;20215;-70
2022/09/11 07:56:57;;;;;;;1.17;0.90;;;;;;;25.88;41.86;94946.84;5026840;28;20202;-69
2022/09/11 07:59:24;;;;;;;0.50;0.50;;;;;;;26.47;41.25;94947.38;5029268;28;20205;-69
2022/09/11 08:01:54;;;;;;;0.97;0.63;;;;;;;26.49;41.47;94945.13;5027914;28;20197;-68
2022/09/11 08:04:22;;;;;;;0.70;0.63;;;;;;;26.37;39.44;94947.91;5028040;28;20209;-68
2022/09/11 08:06:50;;;;;;;3.17;1.33;;;;;;;26.89;38.88;94948.22;5033002;28;20285;-71
2022/09/11 08:09:26;;;;;;;1.43;1.07;;;;;;;27.33;38.74;94945.13;5027562;28;20204;-69
2022/09/11 08:11:57;;;;;;;0.47;0.47;;;;;;;26.99;39.02;94946.81;5027712;28;20280;-68
2022/09/11 08:14:26;;;;;;;0.50;0.50;;;;;;;26.43;40.76;94937.66;5027123;28;20652;-69
2022/09/11 08:16:56;;;;;;;0.77;0.73;;;;;;;26.17;42.56;94937.53;5024538;28;20206;-71
2022/09/11 08:19:26;;;;;;;2.10;0.97;;;;;;;26.50;42.78;94933.22;5027078;28;20193;-71
2022/09/11 08:21:57;;;;;;;1.17;0.77;;;;;;;27.13;41.09;94930.16;5027708;28;20201;-72
2022/09/11 08:24:26;;;;;;;0.80;0.80;;;;;;;26.84;39.68;94920.84;5024942;28;20197;-70
2022/09/11 08:26:57;;;;;;;1.23;1.03;;;;;;;26.12;40.96;94935.91;5020931;28;20630;-68
2022/09/11 08:29:25;;;;;;;1.00;1.00;;;;;;;26.14;41.17;94928.28;5032920;28;20223;-71
2022/09/11 08:31:52;;;;;;;0.50;0.50;;;;;;;26.65;41.15;94931.56;5031154;28;20217;-71
2022/09/11 08:34:21;;;;;;;0.57;0.57;;;;;;;26.78;40.45;94923.03;5048113;28;20211;-69
2022/09/11 08:36:49;;;;;;;1.03;0.87;;;;;;;26.98;39.76;94923.78;5048126;28;20191;-70
2022/09/11 08:39:17;;;;;;;1.67;1.43;;;;;;;26.88;38.90;94930.50;5034518;28;20299;-70
2022/09/11 08:42:12;;;;;;;0.30;0.30;;;;;;;26.75;39.36;94925.66;5031156;28;20197;-69
2022/09/11 08:44:51;;;;;;;1.23;1.13;;;;;;;26.63;39.33;94929.25;5031205;28;20267;-70
2022/09/11 08:47:36;;;;;;;1.33;0.93;;;;;;;27.32;38.78;94928.22;5030992;28;20201;-70
2022/09/11 08:50:16;;;;;;;0.43;0.43;;;;;;;27.13;41.01;94916.72;5027472;28;20670;-68
2022/09/11 08:52:44;;;;;;;1.53;1.43;;;;;;;26.93;39.84;94919.44;5022453;28;20282;-68
2022/09/11 08:55:16;;;;;;;1.00;0.80;;;;;;;26.56;40.44;94918.38;5030621;28;20221;-71
2022/09/11 08:57:47;;;;;;;1.67;1.57;;;;;;;27.03;38.88;94918.88;5018160;28;20243;-69
2022/09/11 09:00:26;;;;;;;6.10;1.37;;;;;;;27.20;38.81;94906.06;5047592;28;20213;-71
2022/09/11 09:03:29;;;;;;;1.13;1.13;;;;;;;27.39;37.93;94911.41;5019281;28;20247;-68
2022/09/11 09:06:21;;;;;;;0.77;0.73;;;;;;;27.86;38.46;94904.41;5047142;28;20197;-68
2022/09/11 09:08:56;;;;;;;0.30;0.30;;;;;;;27.99;37.92;94902.31;5030949;28;20788;-68
2022/09/11 09:11:39;;;;;;;0.60;0.60;;;;;;;27.79;38.14;94887.41;5047325;28;20241;-68
2022/09/11 09:14:33;;;;;;;0.93;0.93;;;;;;;27.18;37.05;94900.28;5014987;28;20201;-68
2022/09/11 09:17:06;;;;;;;2.47;1.57;;;;;;;27.45;36.67;94899.19;5025679;28;20206;-68
2022/09/11 09:19:46;;;;;;;1.10;1.10;;;;;;;27.91;38.11;94884.47;5035443;28;20197;-69
2022/09/11 09:22:41;;;;;;;0.83;0.83;;;;;;;28.44;36.91;94885.94;5019459;28;20244;-67
2022/09/11 09:25:13;;;;;;;0.70;0.70;;;;;;;27.98;36.18;94881.91;5015959;28;20239;-70
2022/09/11 09:27:45;;;;;;;1.20;0.90;;;;;;;28.40;35.71;94874.34;5030204;28;20212;-69
2022/09/11 09:30:18;;;;;;;1.40;1.17;;;;;;;27.82;36.06;94873.19;5047171;28;20208;-73
2022/09/11 09:32:59;;;;;;;1.10;1.10;;;;;;;28.15;35.27;94873.28;5030188;28;20593;-71
2022/09/11 09:35:42;;;;;;;1.43;1.33;;;;;;;28.70;35.61;94869.66;5030664;28;20210;-71
2022/09/11 09:38:20;;;;;;;0.87;0.63;;;;;;;28.94;34.37;94866.44;5032656;28;20205;-67
2022/09/11 09:41:26;;;;;;;1.17;1.00;;;;;;;28.52;35.16;94873.31;5030363;28;20283;-69
2022/09/11 09:44:09;;;;;;;0.73;0.73;;;;;;;28.68;32.62;94866.59;5027230;28;20369;-69
2022/09/11 09:46:47;;;;;;;0.63;0.63;;;;;;;29.16;32.60;94855.84;5011991;28;20206;-69
2022/09/11 09:49:32;;;;;;;1.13;1.03;;;;;;;29.12;31.97;94846.94;5023472;28;20279;-69
2022/09/11 09:52:04;;;;;;;0.70;0.70;;;;;;;29.35;31.75;94858.31;5017542;28;20314;-67
2022/09/11 09:54:35;;;;;;;1.20;1.13;;;;;;;28.83;31.37;94854.75;5019614;28;20197;-70
2022/09/11 09:57:09;;;;;;;0.47;0.47;;;;;;;28.74;31.69;94859.69;5016357;28;20229;-70
2022/09/11 09:59:45;;;;;;;1.40;1.30;;;;;;;29.51;32.37;94862.28;5023052;28;20329;-69
2022/09/11 10:02:29;;;;;;;0.50;0.50;;;;;;;29.86;31.62;94849.03;5027251;28;20228;-70
2022/09/11 10:05:12;;;;;;;0.67;0.67;;;;;;;29.97;30.29;94840.97;5031508;28;20770;-72
2022/09/11 10:07:51;;;;;;;0.57;0.57;;;;;;;29.82;29.79;94855.53;5030430;28;20190;-69
2022/09/11 10:10:37;;;;;;;0.87;0.87;;;;;;;29.57;30.10;94849.97;5030464;28;20201;-67
2022/09/11 10:13:27;;;;;;;0.57;0.57;;;;;;;29.26;30.45;94844.34;5019418;28;20236;-72
2022/09/11 10:16:18;;;;;;;1.10;1.10;;;;;;;29.80;29.82;94830.81;5031174;28;20805;-69
2022/09/11 10:18:46;;;;;;;0.30;0.30;;;;;;;30.50;30.12;94841.94;5018482;28;20661;-64
2022/09/11 10:21:12;;;;;;;0.97;0.97;;;;;;;30.28;30.45;94829.53;5025470;28;20665;-70
2022/09/11 10:23:59;;;;;;;0.30;0.30;;;;;;;30.14;30.58;94826.75;5022638;28;20189;-70
2022/09/11 10:26:36;;;;;;;0.63;0.57;;;;;;;30.39;29.94;94829.56;5030897;28;20223;-68
2022/09/11 10:29:18;;;;;;;0.73;0.73;;;;;;;30.66;28.92;94823.44;5030687;28;20418;-69
2022/09/11 10:31:50;;;;;;;0.87;0.83;;;;;;;30.35;28.84;94829.53;5010631;28;20771;-70
2022/09/11 10:34:19;;;;;;;0.83;0.83;;;;;;;30.52;28.62;94828.03;5024661;28;20567;-72
2022/09/11 10:36:59;;;;;;;1.43;1.33;;;;;;;30.56;28.88;94828.81;5030667;28;20322;-73
2022/09/11 10:39:30;;;;;;;1.83;0.97;;;;;;;30.81;29.71;94825.03;5030308;28;20233;-71
2022/09/11 10:42:08;;;;;;;1.10;1.03;;;;;;;30.81;29.13;94827.75;5029039;28;20200;-69
2022/09/11 10:44:40;;;;;;;0.47;0.47;;;;;;;29.85;29.76;94828.53;5030061;28;20228;-68
2022/09/11 10:47:19;;;;;;;0.70;0.70;;;;;;;31.05;30.26;94823.50;5023077;28;20229;-70
2022/09/11 10:49:47;;;;;;;0.50;0.50;;;;;;;31.25;29.21;94821.94;5023756;28;20211;-71
2022/09/11 10:52:17;;;;;;;1.07;1.07;;;;;;;31.52;30.16;94814.19;5017701;28;20638;-71
2022/09/11 10:54:52;;;;;;;0.53;0.53;;;;;;;30.63;29.88;94816.09;5016692;28;20248;-73
2022/09/11 10:57:47;;;;;;;1.17;1.07;;;;;;;30.91;29.24;94818.09;5014438;28;20205;-69
2022/09/11 11:00:24;;;;;;;0.70;0.70;;;;;;;30.97;28.80;94819.22;5016879;28;20205;-64
2022/09/11 11:03:09;;;;;;;0.33;0.33;;;;;;;31.12;29.59;94817.28;5010517;28;20224;-68
2022/09/11 11:06:05;;;;;;;4.10;0.87;;;;;;;31.10;29.03;94814.19;5024432;28;20228;-67
2022/09/11 11:08:59;;;;;;;1.30;1.20;;;;;;;30.40;28.95;94817.59;5022125;28;20189;-70
2022/09/11 11:11:54;;;;;;;0.67;0.67;;;;;;;30.76;28.71;94802.97;5029790;28;20197;-67
2022/09/11 11:14:33;;;;;;;1.83;1.30;;;;;;;30.92;29.41;94800.69;5029962;28;20197;-72
2022/09/11 11:17:18;;;;;;;0.63;0.63;;;;;;;31.45;29.71;94797.94;5030057;28;20710;-69
2022/09/11 11:20:16;;;;;;;0.93;0.87;;;;;;;31.56;28.96;94798.69;5016065;28;20188;-66
2022/09/11 11:22:57;;;;;;;0.70;0.70;;;;;;;31.65;28.10;94790.94;5013002;28;20212;-70
2022/09/11 11:25:40;;;;;;;0.60;0.60;;;;;;;31.15;29.07;94784.06;5020649;28;20200;-68
2022/09/11 11:28:10;;;;;;;0.80;0.80;;;;;;;30.53;28.43;94784.38;5015617;28;20665;-67
2022/09/11 11:31:07;;;;;;;0.87;0.87;;;;;;;30.92;28.41;94775.53;5029559;28;20275;-68
2022/09/11 11:34:11;;;;;;;1.43;1.33;;;;;;;30.51;29.44;94781.28;5029536;28;20691;-68
2022/09/11 11:37:15;;;;;;;0.30;0.30;;;;;;;31.05;29.59;94769.38;5015514;28;20196;-71
2022/09/11 11:40:05;;;;;;;1.33;1.07;;;;;;;29.59;29.53;94769.38;5015029;28;20225;-69
2022/09/11 11:42:45;;;;;;;0.33;0.33;;;;;;;30.34;29.83;94760.41;5029437;28;20218;-72
2022/09/11 11:45:33;;;;;;;0.50;0.50;;;;;;;30.81;29.06;94772.84;5029631;28;20224;-72
2022/09/11 11:48:08;;;;;;;1.00;1.00;;;;;;;31.76;28.13;94753.75;5028288;28;20258;-71
2022/09/11 11:50:45;;;;;;;0.50;0.50;;;;;;;31.54;27.63;94752.28;5010080;28;20205;-68
2022/09/11 11:53:31;;;;;;;1.43;0.70;;;;;;;31.08;28.57;94754.25;5024696;28;20236;-69
2022/09/11 11:56:12;;;;;;;0.60;0.60;;;;;;;30.84;28.28;94753.91;5023129;28;20201;-72
2022/09/11 11:58:58;;;;;;;0.83;0.70;;;;;;;30.79;28.13;94765.09;5024012;28;20196;-70
2022/09/11 12:01:41;;;;;;;0.73;0.60;;;;;;;30.84;28.21;94762.03;5039434;28;20722;-68
2022/09/11 12:04:26;;;;;;;0.70;0.70;;;;;;;31.25;27.39;94753.47;5031564;28;20197;-72
2022/09/11 12:06:53;;;;;;;0.57;0.57;;;;;;;31.94;27.53;94749.06;5033418;28;20200;-72
2022/09/11 12:09:20;;;;;;;0.60;0.60;;;;;;;32.13;27.75;94748.59;5033491;28;20254;-70